sensor_id;sensor_type;location;lat;lon;timestamp;P1;durP1;ratioP1;P2;durP2;ratioP2
33826;SDS011;20128;45.582;5.298;2023-01-24T00:00:59;54.13;;;25.23;;
33826;SDS011;20128;45.582;5.298;2023-01-24T00:03:25;49.60;;;23.15;;
33826;SDS011;20128;45.582;5.298;2023-01-24T00:05:51;53.38;;;24.73;;
33826;SDS011;20128;45.582;5.298;2023-01-24T00:08:17;48.30;;;22.27;;
33826;SDS011;20128;45.582;5.298;2023-01-24T00:10:44;49.17;;;22.80;;
33826;SDS011;20128;45.582;5.298;2023-01-24T00:13:12;52.05;;;23.73;;
33826;SDS011;20128;45.582;5.298;2023-01-24T00:15:39;52.08;;;24.13;;
33826;SDS011;20128;45.582;5.298;2023-01-24T00:18:05;50.83;;;23.38;;
33826;SDS011;20128;45.582;5.298;2023-01-24T00:20:30;46.33;;;22.65;;
33826;SDS011;20128;45.582;5.298;2023-01-24T00:22:56;49.00;;;21.00;;
33826;SDS011;20128;45.582;5.298;2023-01-24T00:25:22;46.40;;;21.90;;
33826;SDS011;20128;45.582;5.298;2023-01-24T00:27:47;56.50;;;24.20;;
33826;SDS011;20128;45.582;5.298;2023-01-24T00:30:14;50.30;;;22.92;;
33826;SDS011;20128;45.582;5.298;2023-01-24T00:32:39;47.35;;;21.15;;
33826;SDS011;20128;45.582;5.298;2023-01-24T00:35:05;40.72;;;21.15;;
33826;SDS011;20128;45.582;5.298;2023-01-24T00:37:31;48.00;;;20.70;;
33826;SDS011;20128;45.582;5.298;2023-01-24T00:39:57;44.58;;;20.65;;
33826;SDS011;20128;45.582;5.298;2023-01-24T00:42:23;54.45;;;22.05;;
33826;SDS011;20128;45.582;5.298;2023-01-24T00:44:48;46.03;;;20.70;;
33826;SDS011;20128;45.582;5.298;2023-01-24T00:47:14;46.58;;;21.90;;
33826;SDS011;20128;45.582;5.298;2023-01-24T00:49:40;45.33;;;21.63;;
33826;SDS011;20128;45.582;5.298;2023-01-24T00:52:05;51.55;;;23.15;;
33826;SDS011;20128;45.582;5.298;2023-01-24T00:54:31;52.50;;;22.50;;
33826;SDS011;20128;45.582;5.298;2023-01-24T00:56:57;49.78;;;21.17;;
33826;SDS011;20128;45.582;5.298;2023-01-24T00:59:22;48.45;;;23.20;;
33826;SDS011;20128;45.582;5.298;2023-01-24T01:01:48;42.20;;;21.25;;
33826;SDS011;20128;45.582;5.298;2023-01-24T01:04:13;46.30;;;21.55;;
33826;SDS011;20128;45.582;5.298;2023-01-24T01:06:39;50.63;;;22.55;;
33826;SDS011;20128;45.582;5.298;2023-01-24T01:09:05;50.72;;;21.10;;
33826;SDS011;20128;45.582;5.298;2023-01-24T01:11:31;44.72;;;22.13;;
33826;SDS011;20128;45.582;5.298;2023-01-24T01:13:56;45.75;;;20.80;;
33826;SDS011;20128;45.582;5.298;2023-01-24T01:16:23;47.30;;;22.80;;
33826;SDS011;20128;45.582;5.298;2023-01-24T01:18:49;43.28;;;19.95;;
33826;SDS011;20128;45.582;5.298;2023-01-24T01:21:19;42.00;;;18.90;;
33826;SDS011;20128;45.582;5.298;2023-01-24T01:23:46;41.55;;;19.85;;
33826;SDS011;20128;45.582;5.298;2023-01-24T01:26:17;35.45;;;16.88;;
33826;SDS011;20128;45.582;5.298;2023-01-24T01:28:45;38.47;;;17.17;;
33826;SDS011;20128;45.582;5.298;2023-01-24T01:31:11;39.65;;;15.85;;
33826;SDS011;20128;45.582;5.298;2023-01-24T01:33:37;39.78;;;18.00;;
33826;SDS011;20128;45.582;5.298;2023-01-24T01:36:03;37.83;;;17.02;;
33826;SDS011;20128;45.582;5.298;2023-01-24T01:38:29;38.10;;;17.92;;
33826;SDS011;20128;45.582;5.298;2023-01-24T01:40:55;33.30;;;16.85;;
33826;SDS011;20128;45.582;5.298;2023-01-24T01:43:22;34.30;;;16.77;;
33826;SDS011;20128;45.582;5.298;2023-01-24T01:45:50;38.70;;;17.70;;
33826;SDS011;20128;45.582;5.298;2023-01-24T01:50:50;36.88;;;16.27;;
33826;SDS011;20128;45.582;5.298;2023-01-24T01:53:22;33.90;;;17.57;;
33826;SDS011;20128;45.582;5.298;2023-01-24T01:55:51;35.85;;;16.60;;
33826;SDS011;20128;45.582;5.298;2023-01-24T01:58:24;37.13;;;17.27;;
33826;SDS011;20128;45.582;5.298;2023-01-24T02:00:50;34.40;;;17.30;;
33826;SDS011;20128;45.582;5.298;2023-01-24T02:03:17;36.33;;;17.77;;
33826;SDS011;20128;45.582;5.298;2023-01-24T02:06:15;36.40;;;18.02;;
33826;SDS011;20128;45.582;5.298;2023-01-24T02:09:02;38.88;;;18.05;;
33826;SDS011;20128;45.582;5.298;2023-01-24T02:11:29;40.50;;;17.63;;
33826;SDS011;20128;45.582;5.298;2023-01-24T02:14:05;38.75;;;17.08;;
33826;SDS011;20128;45.582;5.298;2023-01-24T02:16:54;31.58;;;15.93;;
33826;SDS011;20128;45.582;5.298;2023-01-24T02:19:23;48.47;;;20.45;;
33826;SDS011;20128;45.582;5.298;2023-01-24T02:22:15;32.97;;;17.20;;
33826;SDS011;20128;45.582;5.298;2023-01-24T02:24:55;32.75;;;15.88;;
33826;SDS011;20128;45.582;5.298;2023-01-24T02:27:30;32.83;;;15.38;;
33826;SDS011;20128;45.582;5.298;2023-01-24T02:29:56;33.10;;;15.25;;
33826;SDS011;20128;45.582;5.298;2023-01-24T02:32:22;39.08;;;16.55;;
33826;SDS011;20128;45.582;5.298;2023-01-24T02:34:47;31.77;;;15.40;;
33826;SDS011;20128;45.582;5.298;2023-01-24T02:37:13;33.05;;;16.63;;
33826;SDS011;20128;45.582;5.298;2023-01-24T02:42:12;35.67;;;16.10;;
33826;SDS011;20128;45.582;5.298;2023-01-24T02:44:41;37.50;;;17.40;;
33826;SDS011;20128;45.582;5.298;2023-01-24T02:47:08;32.58;;;15.55;;
33826;SDS011;20128;45.582;5.298;2023-01-24T02:49:34;32.33;;;15.75;;
33826;SDS011;20128;45.582;5.298;2023-01-24T02:51:59;32.38;;;16.40;;
33826;SDS011;20128;45.582;5.298;2023-01-24T02:54:43;34.35;;;16.00;;
33826;SDS011;20128;45.582;5.298;2023-01-24T02:57:09;35.70;;;17.48;;
33826;SDS011;20128;45.582;5.298;2023-01-24T02:59:53;34.53;;;16.25;;
33826;SDS011;20128;45.582;5.298;2023-01-24T03:02:19;33.90;;;15.48;;
33826;SDS011;20128;45.582;5.298;2023-01-24T03:04:44;34.40;;;16.10;;
33826;SDS011;20128;45.582;5.298;2023-01-24T03:07:10;33.53;;;17.08;;
33826;SDS011;20128;45.582;5.298;2023-01-24T03:09:36;33.72;;;16.42;;
33826;SDS011;20128;45.582;5.298;2023-01-24T03:12:04;31.17;;;15.55;;
33826;SDS011;20128;45.582;5.298;2023-01-24T03:14:50;32.72;;;15.30;;
33826;SDS011;20128;45.582;5.298;2023-01-24T03:17:34;31.75;;;14.93;;
33826;SDS011;20128;45.582;5.298;2023-01-24T03:20:18;41.28;;;17.48;;
33826;SDS011;20128;45.582;5.298;2023-01-24T03:23:03;33.70;;;16.05;;
33826;SDS011;20128;45.582;5.298;2023-01-24T03:25:47;33.65;;;15.63;;
33826;SDS011;20128;45.582;5.298;2023-01-24T03:31:15;36.55;;;15.70;;
33826;SDS011;20128;45.582;5.298;2023-01-24T03:33:59;31.25;;;15.60;;
33826;SDS011;20128;45.582;5.298;2023-01-24T03:36:44;33.40;;;14.77;;
33826;SDS011;20128;45.582;5.298;2023-01-24T03:39:10;31.88;;;15.27;;
33826;SDS011;20128;45.582;5.298;2023-01-24T03:41:54;35.58;;;15.95;;
33826;SDS011;20128;45.582;5.298;2023-01-24T03:44:20;40.58;;;16.40;;
33826;SDS011;20128;45.582;5.298;2023-01-24T03:46:46;34.58;;;15.65;;
33826;SDS011;20128;45.582;5.298;2023-01-24T03:49:12;38.17;;;17.63;;
33826;SDS011;20128;45.582;5.298;2023-01-24T03:51:38;38.72;;;17.77;;
33826;SDS011;20128;45.582;5.298;2023-01-24T03:54:22;38.72;;;18.60;;
33826;SDS011;20128;45.582;5.298;2023-01-24T03:56:48;35.55;;;16.42;;
33826;SDS011;20128;45.582;5.298;2023-01-24T03:59:14;42.22;;;18.02;;
33826;SDS011;20128;45.582;5.298;2023-01-24T04:01:39;33.33;;;15.80;;
33826;SDS011;20128;45.582;5.298;2023-01-24T04:04:05;36.00;;;15.32;;
33826;SDS011;20128;45.582;5.298;2023-01-24T04:06:31;37.42;;;17.45;;
33826;SDS011;20128;45.582;5.298;2023-01-24T04:08:56;35.92;;;17.20;;
33826;SDS011;20128;45.582;5.298;2023-01-24T04:11:22;34.38;;;15.93;;
33826;SDS011;20128;45.582;5.298;2023-01-24T04:13:48;36.85;;;15.98;;
33826;SDS011;20128;45.582;5.298;2023-01-24T04:16:13;42.05;;;17.08;;
33826;SDS011;20128;45.582;5.298;2023-01-24T04:18:39;36.15;;;16.92;;
33826;SDS011;20128;45.582;5.298;2023-01-24T04:21:05;41.42;;;18.15;;
33826;SDS011;20128;45.582;5.298;2023-01-24T04:23:31;42.30;;;17.33;;
33826;SDS011;20128;45.582;5.298;2023-01-24T04:25:57;39.67;;;16.27;;
33826;SDS011;20128;45.582;5.298;2023-01-24T04:28:24;38.28;;;17.13;;
33826;SDS011;20128;45.582;5.298;2023-01-24T04:30:57;38.92;;;18.27;;
33826;SDS011;20128;45.582;5.298;2023-01-24T04:33:24;35.85;;;16.75;;
33826;SDS011;20128;45.582;5.298;2023-01-24T04:35:51;34.13;;;16.80;;
33826;SDS011;20128;45.582;5.298;2023-01-24T04:38:16;41.03;;;17.92;;
33826;SDS011;20128;45.582;5.298;2023-01-24T04:40:42;43.08;;;18.05;;
33826;SDS011;20128;45.582;5.298;2023-01-24T04:43:07;37.72;;;18.23;;
33826;SDS011;20128;45.582;5.298;2023-01-24T04:45:33;38.15;;;17.48;;
33826;SDS011;20128;45.582;5.298;2023-01-24T04:47:59;38.15;;;17.48;;
33826;SDS011;20128;45.582;5.298;2023-01-24T04:50:25;40.55;;;17.67;;
33826;SDS011;20128;45.582;5.298;2023-01-24T04:52:50;41.78;;;18.77;;
33826;SDS011;20128;45.582;5.298;2023-01-24T04:55:16;40.13;;;18.33;;
33826;SDS011;20128;45.582;5.298;2023-01-24T04:57:42;40.38;;;19.23;;
33826;SDS011;20128;45.582;5.298;2023-01-24T05:00:08;40.40;;;18.75;;
33826;SDS011;20128;45.582;5.298;2023-01-24T05:02:34;40.95;;;20.02;;
33826;SDS011;20128;45.582;5.298;2023-01-24T05:05:02;40.30;;;18.60;;
33826;SDS011;20128;45.582;5.298;2023-01-24T05:07:28;37.45;;;17.30;;
33826;SDS011;20128;45.582;5.298;2023-01-24T05:09:54;37.08;;;17.98;;
33826;SDS011;20128;45.582;5.298;2023-01-24T05:12:20;37.47;;;16.95;;
33826;SDS011;20128;45.582;5.298;2023-01-24T05:14:45;36.70;;;16.75;;
33826;SDS011;20128;45.582;5.298;2023-01-24T05:17:11;35.35;;;17.38;;
33826;SDS011;20128;45.582;5.298;2023-01-24T05:19:36;36.22;;;18.10;;
33826;SDS011;20128;45.582;5.298;2023-01-24T05:22:02;39.72;;;17.50;;
33826;SDS011;20128;45.582;5.298;2023-01-24T05:24:28;37.08;;;17.83;;
33826;SDS011;20128;45.582;5.298;2023-01-24T05:26:53;32.90;;;15.65;;
33826;SDS011;20128;45.582;5.298;2023-01-24T05:29:19;45.30;;;16.40;;
33826;SDS011;20128;45.582;5.298;2023-01-24T05:31:45;39.15;;;17.25;;
33826;SDS011;20128;45.582;5.298;2023-01-24T05:34:11;36.88;;;17.55;;
33826;SDS011;20128;45.582;5.298;2023-01-24T05:36:36;37.90;;;17.60;;
33826;SDS011;20128;45.582;5.298;2023-01-24T05:39:02;39.33;;;16.95;;
33826;SDS011;20128;45.582;5.298;2023-01-24T05:41:28;45.05;;;19.30;;
33826;SDS011;20128;45.582;5.298;2023-01-24T05:43:53;46.78;;;21.33;;
33826;SDS011;20128;45.582;5.298;2023-01-24T05:46:19;44.45;;;20.20;;
33826;SDS011;20128;45.582;5.298;2023-01-24T05:48:46;43.67;;;18.63;;
33826;SDS011;20128;45.582;5.298;2023-01-24T05:51:14;43.78;;;19.20;;
33826;SDS011;20128;45.582;5.298;2023-01-24T05:53:42;40.30;;;19.20;;
33826;SDS011;20128;45.582;5.298;2023-01-24T05:56:16;44.95;;;20.30;;
33826;SDS011;20128;45.582;5.298;2023-01-24T05:58:44;35.63;;;17.85;;
33826;SDS011;20128;45.582;5.298;2023-01-24T06:01:12;42.13;;;18.98;;
33826;SDS011;20128;45.582;5.298;2023-01-24T06:03:46;43.60;;;19.27;;
33826;SDS011;20128;45.582;5.298;2023-01-24T06:06:14;38.10;;;17.75;;
33826;SDS011;20128;45.582;5.298;2023-01-24T06:08:41;39.72;;;18.40;;
33826;SDS011;20128;45.582;5.298;2023-01-24T06:11:10;42.03;;;17.98;;
33826;SDS011;20128;45.582;5.298;2023-01-24T06:13:37;37.08;;;18.27;;
33826;SDS011;20128;45.582;5.298;2023-01-24T06:16:09;43.42;;;18.25;;
33826;SDS011;20128;45.582;5.298;2023-01-24T06:18:36;38.80;;;18.27;;
33826;SDS011;20128;45.582;5.298;2023-01-24T06:21:06;37.53;;;17.52;;
33826;SDS011;20128;45.582;5.298;2023-01-24T06:23:36;39.67;;;17.10;;
33826;SDS011;20128;45.582;5.298;2023-01-24T06:26:02;38.78;;;17.48;;
33826;SDS011;20128;45.582;5.298;2023-01-24T06:28:28;37.92;;;17.85;;
33826;SDS011;20128;45.582;5.298;2023-01-24T06:30:58;37.58;;;17.08;;
33826;SDS011;20128;45.582;5.298;2023-01-24T06:33:35;35.95;;;16.95;;
33826;SDS011;20128;45.582;5.298;2023-01-24T06:38:50;48.78;;;21.20;;
33826;SDS011;20128;45.582;5.298;2023-01-24T06:41:16;43.92;;;21.13;;
33826;SDS011;20128;45.582;5.298;2023-01-24T06:43:43;45.65;;;19.85;;
33826;SDS011;20128;45.582;5.298;2023-01-24T06:46:10;52.85;;;20.35;;
33826;SDS011;20128;45.582;5.298;2023-01-24T06:48:36;46.92;;;20.58;;
33826;SDS011;20128;45.582;5.298;2023-01-24T06:51:02;41.85;;;19.90;;
33826;SDS011;20128;45.582;5.298;2023-01-24T06:53:29;51.95;;;21.30;;
33826;SDS011;20128;45.582;5.298;2023-01-24T06:55:56;39.63;;;19.25;;
33826;SDS011;20128;45.582;5.298;2023-01-24T06:58:22;57.35;;;21.30;;
33826;SDS011;20128;45.582;5.298;2023-01-24T07:00:47;50.70;;;21.98;;
33826;SDS011;20128;45.582;5.298;2023-01-24T07:03:13;46.47;;;21.63;;
33826;SDS011;20128;45.582;5.298;2023-01-24T07:05:38;43.50;;;20.50;;
33826;SDS011;20128;45.582;5.298;2023-01-24T07:08:05;47.22;;;19.25;;
33826;SDS011;20128;45.582;5.298;2023-01-24T07:10:31;39.60;;;19.08;;
33826;SDS011;20128;45.582;5.298;2023-01-24T07:12:57;40.22;;;18.33;;
33826;SDS011;20128;45.582;5.298;2023-01-24T07:15:23;45.88;;;19.08;;
33826;SDS011;20128;45.582;5.298;2023-01-24T07:17:49;42.13;;;19.40;;
33826;SDS011;20128;45.582;5.298;2023-01-24T07:20:15;39.67;;;17.60;;
33826;SDS011;20128;45.582;5.298;2023-01-24T07:22:41;42.08;;;19.77;;
33826;SDS011;20128;45.582;5.298;2023-01-24T07:25:14;43.53;;;19.92;;
33826;SDS011;20128;45.582;5.298;2023-01-24T07:27:42;43.45;;;20.05;;
33826;SDS011;20128;45.582;5.298;2023-01-24T07:30:09;42.88;;;19.30;;
33826;SDS011;20128;45.582;5.298;2023-01-24T07:32:36;48.45;;;20.42;;
33826;SDS011;20128;45.582;5.298;2023-01-24T07:35:01;40.80;;;19.58;;
33826;SDS011;20128;45.582;5.298;2023-01-24T07:37:29;46.22;;;19.67;;
33826;SDS011;20128;45.582;5.298;2023-01-24T07:39:54;49.58;;;18.95;;
33826;SDS011;20128;45.582;5.298;2023-01-24T07:42:20;46.13;;;18.70;;
33826;SDS011;20128;45.582;5.298;2023-01-24T07:44:45;41.28;;;19.40;;
33826;SDS011;20128;45.582;5.298;2023-01-24T07:47:11;43.63;;;18.85;;
33826;SDS011;20128;45.582;5.298;2023-01-24T07:49:37;43.20;;;18.60;;
33826;SDS011;20128;45.582;5.298;2023-01-24T07:52:02;40.15;;;19.10;;
33826;SDS011;20128;45.582;5.298;2023-01-24T07:54:28;38.80;;;18.17;;
33826;SDS011;20128;45.582;5.298;2023-01-24T07:56:54;39.58;;;18.00;;
33826;SDS011;20128;45.582;5.298;2023-01-24T07:59:19;45.22;;;19.80;;
33826;SDS011;20128;45.582;5.298;2023-01-24T08:01:45;42.15;;;18.67;;
33826;SDS011;20128;45.582;5.298;2023-01-24T08:04:10;42.80;;;19.15;;
33826;SDS011;20128;45.582;5.298;2023-01-24T08:06:37;42.30;;;18.55;;
33826;SDS011;20128;45.582;5.298;2023-01-24T08:09:24;40.63;;;19.13;;
33826;SDS011;20128;45.582;5.298;2023-01-24T08:11:49;45.17;;;19.25;;
33826;SDS011;20128;45.582;5.298;2023-01-24T08:14:15;59.67;;;24.45;;
33826;SDS011;20128;45.582;5.298;2023-01-24T08:16:41;42.03;;;20.05;;
33826;SDS011;20128;45.582;5.298;2023-01-24T08:19:06;48.33;;;22.20;;
33826;SDS011;20128;45.582;5.298;2023-01-24T08:21:32;43.17;;;19.20;;
33826;SDS011;20128;45.582;5.298;2023-01-24T08:23:57;46.50;;;19.42;;
33826;SDS011;20128;45.582;5.298;2023-01-24T08:26:23;43.13;;;19.80;;
33826;SDS011;20128;45.582;5.298;2023-01-24T08:28:49;46.55;;;19.85;;
33826;SDS011;20128;45.582;5.298;2023-01-24T08:31:14;43.92;;;21.13;;
33826;SDS011;20128;45.582;5.298;2023-01-24T08:33:40;44.45;;;19.40;;
33826;SDS011;20128;45.582;5.298;2023-01-24T08:36:06;47.33;;;19.27;;
33826;SDS011;20128;45.582;5.298;2023-01-24T08:38:31;42.28;;;20.10;;
33826;SDS011;20128;45.582;5.298;2023-01-24T08:40:57;44.75;;;20.92;;
33826;SDS011;20128;45.582;5.298;2023-01-24T08:43:23;47.22;;;21.98;;
33826;SDS011;20128;45.582;5.298;2023-01-24T08:45:52;47.08;;;21.95;;
33826;SDS011;20128;45.582;5.298;2023-01-24T08:48:20;43.47;;;19.15;;
33826;SDS011;20128;45.582;5.298;2023-01-24T08:50:45;46.20;;;21.55;;
33826;SDS011;20128;45.582;5.298;2023-01-24T08:53:11;41.58;;;18.13;;
33826;SDS011;20128;45.582;5.298;2023-01-24T08:55:37;45.72;;;18.95;;
33826;SDS011;20128;45.582;5.298;2023-01-24T08:58:03;42.38;;;18.40;;
33826;SDS011;20128;45.582;5.298;2023-01-24T09:00:29;40.70;;;18.80;;
33826;SDS011;20128;45.582;5.298;2023-01-24T09:02:55;39.92;;;19.25;;
33826;SDS011;20128;45.582;5.298;2023-01-24T09:05:26;41.97;;;19.67;;
33826;SDS011;20128;45.582;5.298;2023-01-24T09:07:52;47.40;;;20.80;;
33826;SDS011;20128;45.582;5.298;2023-01-24T09:10:18;42.47;;;20.27;;
33826;SDS011;20128;45.582;5.298;2023-01-24T09:12:43;46.25;;;20.17;;
33826;SDS011;20128;45.582;5.298;2023-01-24T09:15:09;39.35;;;19.27;;
33826;SDS011;20128;45.582;5.298;2023-01-24T09:17:36;44.00;;;20.83;;
33826;SDS011;20128;45.582;5.298;2023-01-24T09:20:02;42.80;;;20.05;;
33826;SDS011;20128;45.582;5.298;2023-01-24T09:22:30;45.13;;;18.95;;
33826;SDS011;20128;45.582;5.298;2023-01-24T09:24:55;44.05;;;19.55;;
33826;SDS011;20128;45.582;5.298;2023-01-24T09:27:21;40.42;;;19.73;;
33826;SDS011;20128;45.582;5.298;2023-01-24T09:29:47;39.47;;;18.67;;
33826;SDS011;20128;45.582;5.298;2023-01-24T09:32:12;43.15;;;20.17;;
33826;SDS011;20128;45.582;5.298;2023-01-24T09:34:38;42.05;;;19.38;;
33826;SDS011;20128;45.582;5.298;2023-01-24T09:37:10;41.08;;;19.45;;
33826;SDS011;20128;45.582;5.298;2023-01-24T09:39:36;42.70;;;19.80;;
33826;SDS011;20128;45.582;5.298;2023-01-24T09:44:33;41.47;;;19.85;;
33826;SDS011;20128;45.582;5.298;2023-01-24T09:50:01;39.20;;;17.35;;
33826;SDS011;20128;45.582;5.298;2023-01-24T09:57:54;36.42;;;16.55;;
33826;SDS011;20128;45.582;5.298;2023-01-24T10:00:37;42.17;;;19.02;;
33826;SDS011;20128;45.582;5.298;2023-01-24T10:03:18;45.28;;;18.88;;
33826;SDS011;20128;45.582;5.298;2023-01-24T10:05:50;50.63;;;18.95;;
33826;SDS011;20128;45.582;5.298;2023-01-24T10:10:53;38.85;;;18.75;;
33826;SDS011;20128;45.582;5.298;2023-01-24T10:16:46;44.85;;;19.27;;
33826;SDS011;20128;45.582;5.298;2023-01-24T10:24:57;43.63;;;20.83;;
33826;SDS011;20128;45.582;5.298;2023-01-24T10:27:28;44.17;;;19.57;;
33826;SDS011;20128;45.582;5.298;2023-01-24T10:30:02;46.08;;;20.73;;
33826;SDS011;20128;45.582;5.298;2023-01-24T10:32:38;44.67;;;20.90;;
33826;SDS011;20128;45.582;5.298;2023-01-24T10:35:12;38.25;;;19.15;;
33826;SDS011;20128;45.582;5.298;2023-01-24T10:37:42;40.15;;;21.23;;
33826;SDS011;20128;45.582;5.298;2023-01-24T10:40:11;39.88;;;19.58;;
33826;SDS011;20128;45.582;5.298;2023-01-24T10:42:38;41.75;;;20.05;;
33826;SDS011;20128;45.582;5.298;2023-01-24T10:47:54;45.72;;;21.67;;
33826;SDS011;20128;45.582;5.298;2023-01-24T10:50:33;45.58;;;20.30;;
33826;SDS011;20128;45.582;5.298;2023-01-24T10:53:11;46.08;;;19.52;;
33826;SDS011;20128;45.582;5.298;2023-01-24T10:55:38;43.63;;;21.50;;
33826;SDS011;20128;45.582;5.298;2023-01-24T10:58:18;42.95;;;21.25;;
33826;SDS011;20128;45.582;5.298;2023-01-24T11:00:59;45.95;;;19.75;;
33826;SDS011;20128;45.582;5.298;2023-01-24T11:03:30;41.95;;;19.45;;
33826;SDS011;20128;45.582;5.298;2023-01-24T11:06:00;47.13;;;22.92;;
33826;SDS011;20128;45.582;5.298;2023-01-24T11:08:32;42.33;;;21.20;;
33826;SDS011;20128;45.582;5.298;2023-01-24T11:10:59;43.25;;;20.02;;
33826;SDS011;20128;45.582;5.298;2023-01-24T11:15:51;43.45;;;19.98;;
33826;SDS011;20128;45.582;5.298;2023-01-24T11:18:21;42.58;;;22.20;;
33826;SDS011;20128;45.582;5.298;2023-01-24T11:21:10;36.58;;;18.70;;
33826;SDS011;20128;45.582;5.298;2023-01-24T11:23:40;40.25;;;18.90;;
33826;SDS011;20128;45.582;5.298;2023-01-24T11:26:20;45.08;;;21.35;;
33826;SDS011;20128;45.582;5.298;2023-01-24T11:29:03;46.90;;;20.45;;
33826;SDS011;20128;45.582;5.298;2023-01-24T11:31:35;38.35;;;19.33;;
33826;SDS011;20128;45.582;5.298;2023-01-24T11:36:44;40.15;;;19.58;;
33826;SDS011;20128;45.582;5.298;2023-01-24T11:39:17;43.47;;;21.17;;
33826;SDS011;20128;45.582;5.298;2023-01-24T11:42:17;45.47;;;22.15;;
33826;SDS011;20128;45.582;5.298;2023-01-24T11:50:51;39.90;;;19.52;;
33826;SDS011;20128;45.582;5.298;2023-01-24T12:07:00;38.78;;;19.77;;
33826;SDS011;20128;45.582;5.298;2023-01-24T12:10:14;44.25;;;19.50;;
33826;SDS011;20128;45.582;5.298;2023-01-24T12:12:35;31.48;;;16.10;;
33826;SDS011;20128;45.582;5.298;2023-01-24T12:15:17;46.63;;;20.05;;
33826;SDS011;20128;45.582;5.298;2023-01-24T12:25:55;43.83;;;21.33;;
33826;SDS011;20128;45.582;5.298;2023-01-24T12:28:29;43.20;;;19.27;;
33826;SDS011;20128;45.582;5.298;2023-01-24T12:31:00;42.93;;;19.93;;
33826;SDS011;20128;45.582;5.298;2023-01-24T12:33:31;40.65;;;18.88;;
33826;SDS011;20128;45.582;5.298;2023-01-24T12:36:11;36.67;;;17.00;;
33826;SDS011;20128;45.582;5.298;2023-01-24T12:38:56;40.05;;;17.85;;
33826;SDS011;20128;45.582;5.298;2023-01-24T12:41:32;37.80;;;18.52;;
33826;SDS011;20128;45.582;5.298;2023-01-24T12:57:43;37.88;;;18.13;;
33826;SDS011;20128;45.582;5.298;2023-01-24T13:00:20;37.80;;;18.58;;
33826;SDS011;20128;45.582;5.298;2023-01-24T13:11:23;41.03;;;19.98;;
33826;SDS011;20128;45.582;5.298;2023-01-24T13:16:42;41.40;;;19.98;;
33826;SDS011;20128;45.582;5.298;2023-01-24T13:27:42;32.05;;;16.63;;
33826;SDS011;20128;45.582;5.298;2023-01-24T13:33:01;38.13;;;17.75;;
33826;SDS011;20128;45.582;5.298;2023-01-24T13:35:28;38.63;;;18.70;;
33826;SDS011;20128;45.582;5.298;2023-01-24T13:38:01;32.10;;;16.63;;
33826;SDS011;20128;45.582;5.298;2023-01-24T13:40:31;37.92;;;18.17;;
33826;SDS011;20128;45.582;5.298;2023-01-24T13:43:00;37.35;;;17.25;;
33826;SDS011;20128;45.582;5.298;2023-01-24T13:45:49;32.33;;;16.27;;
33826;SDS011;20128;45.582;5.298;2023-01-24T13:56:26;33.97;;;16.00;;
33826;SDS011;20128;45.582;5.298;2023-01-24T13:58:52;36.63;;;17.00;;
33826;SDS011;20128;45.582;5.298;2023-01-24T14:01:19;45.33;;;18.67;;
33826;SDS011;20128;45.582;5.298;2023-01-24T14:03:53;34.28;;;18.10;;
33826;SDS011;20128;45.582;5.298;2023-01-24T14:06:24;34.22;;;16.75;;
33826;SDS011;20128;45.582;5.298;2023-01-24T14:08:58;30.50;;;16.67;;
33826;SDS011;20128;45.582;5.298;2023-01-24T14:14:02;34.07;;;16.43;;
33826;SDS011;20128;45.582;5.298;2023-01-24T14:19:27;35.08;;;17.30;;
33826;SDS011;20128;45.582;5.298;2023-01-24T14:24:48;34.45;;;17.17;;
33826;SDS011;20128;45.582;5.298;2023-01-24T14:27:32;32.97;;;16.33;;
33826;SDS011;20128;45.582;5.298;2023-01-24T14:32:49;34.33;;;16.55;;
33826;SDS011;20128;45.582;5.298;2023-01-24T14:37:45;32.92;;;15.50;;
33826;SDS011;20128;45.582;5.298;2023-01-24T14:40:25;28.98;;;15.32;;
33826;SDS011;20128;45.582;5.298;2023-01-24T14:43:01;30.10;;;15.23;;
33826;SDS011;20128;45.582;5.298;2023-01-24T14:45:30;36.40;;;16.48;;
33826;SDS011;20128;45.582;5.298;2023-01-24T14:47:58;37.75;;;17.73;;
33826;SDS011;20128;45.582;5.298;2023-01-24T14:50:28;37.15;;;17.25;;
33826;SDS011;20128;45.582;5.298;2023-01-24T14:53:02;36.63;;;17.40;;
33826;SDS011;20128;45.582;5.298;2023-01-24T14:55:48;35.13;;;17.55;;
33826;SDS011;20128;45.582;5.298;2023-01-24T14:58:27;39.53;;;18.10;;
33826;SDS011;20128;45.582;5.298;2023-01-24T15:00:57;36.20;;;17.30;;
33826;SDS011;20128;45.582;5.298;2023-01-24T15:03:26;33.47;;;16.90;;
33826;SDS011;20128;45.582;5.298;2023-01-24T15:08:21;37.33;;;17.23;;
33826;SDS011;20128;45.582;5.298;2023-01-24T15:10:51;37.70;;;18.73;;
33826;SDS011;20128;45.582;5.298;2023-01-24T15:13:28;39.95;;;19.35;;
33826;SDS011;20128;45.582;5.298;2023-01-24T15:15:56;35.55;;;18.27;;
33826;SDS011;20128;45.582;5.298;2023-01-24T15:18:40;40.00;;;18.10;;
33826;SDS011;20128;45.582;5.298;2023-01-24T15:23:47;34.17;;;16.77;;
33826;SDS011;20128;45.582;5.298;2023-01-24T15:32:21;44.15;;;20.02;;
33826;SDS011;20128;45.582;5.298;2023-01-24T15:37:38;39.10;;;18.23;;
33826;SDS011;20128;45.582;5.298;2023-01-24T15:40:04;32.90;;;17.27;;
33826;SDS011;20128;45.582;5.298;2023-01-24T15:42:37;28.10;;;14.20;;
33826;SDS011;20128;45.582;5.298;2023-01-24T15:45:26;42.97;;;18.55;;
33826;SDS011;20128;45.582;5.298;2023-01-24T15:48:13;39.28;;;19.38;;
33826;SDS011;20128;45.582;5.298;2023-01-24T15:50:49;36.75;;;17.55;;
33826;SDS011;20128;45.582;5.298;2023-01-24T15:53:41;34.60;;;16.98;;
33826;SDS011;20128;45.582;5.298;2023-01-24T15:56:19;34.92;;;17.80;;
33826;SDS011;20128;45.582;5.298;2023-01-24T15:58:47;38.50;;;18.92;;
33826;SDS011;20128;45.582;5.298;2023-01-24T16:01:14;32.90;;;16.70;;
33826;SDS011;20128;45.582;5.298;2023-01-24T16:03:40;40.95;;;19.20;;
33826;SDS011;20128;45.582;5.298;2023-01-24T16:06:06;33.85;;;17.65;;
33826;SDS011;20128;45.582;5.298;2023-01-24T16:08:31;38.70;;;18.73;;
33826;SDS011;20128;45.582;5.298;2023-01-24T16:10:57;34.20;;;17.42;;
33826;SDS011;20128;45.582;5.298;2023-01-24T16:15:59;39.33;;;19.25;;
33826;SDS011;20128;45.582;5.298;2023-01-24T16:18:28;41.83;;;18.60;;
33826;SDS011;20128;45.582;5.298;2023-01-24T16:20:54;36.78;;;18.80;;
33826;SDS011;20128;45.582;5.298;2023-01-24T16:23:20;34.35;;;18.88;;
33826;SDS011;20128;45.582;5.298;2023-01-24T16:25:46;35.15;;;18.30;;
33826;SDS011;20128;45.582;5.298;2023-01-24T16:28:21;36.88;;;18.67;;
33826;SDS011;20128;45.582;5.298;2023-01-24T16:30:48;34.78;;;17.73;;
33826;SDS011;20128;45.582;5.298;2023-01-24T16:33:18;35.75;;;17.90;;
33826;SDS011;20128;45.582;5.298;2023-01-24T16:35:45;35.63;;;17.85;;
33826;SDS011;20128;45.582;5.298;2023-01-24T16:38:11;35.45;;;17.85;;
33826;SDS011;20128;45.582;5.298;2023-01-24T16:40:39;33.13;;;17.63;;
33826;SDS011;20128;45.582;5.298;2023-01-24T16:43:06;35.50;;;18.70;;
33826;SDS011;20128;45.582;5.298;2023-01-24T16:45:34;37.28;;;18.80;;
33826;SDS011;20128;45.582;5.298;2023-01-24T16:48:00;39.42;;;19.48;;
33826;SDS011;20128;45.582;5.298;2023-01-24T16:50:26;39.88;;;19.98;;
33826;SDS011;20128;45.582;5.298;2023-01-24T16:52:52;39.20;;;19.95;;
33826;SDS011;20128;45.582;5.298;2023-01-24T16:55:18;43.08;;;19.80;;
33826;SDS011;20128;45.582;5.298;2023-01-24T16:57:44;37.40;;;18.33;;